Flight Track Log - Related Links

Times and Time Zones

All times are in EDT time to prevent confusion due to time zone crossing. See the LBQ871 flight status page for this flight to view local times or setup timezone preferences in your user account.

Time Position Orientation Groundspeed Altitude Reporting Facility
EDT Latitude Longitude Course Direction KTS MPH feet Rate Location/Type
Wed 08:59:00 AM 40.1590 -76.2199 229° Southwest  Level FlightAware Approximate
Wed 09:00:00 AM 40.1255 -76.2656 237° Southwest  Level FlightAware Approximate
Wed 09:01:00 AM 40.0988 -76.3191 237° Southwest  Level FlightAware Approximate
Wed 09:02:00 AM 40.0721 -76.3726 237° Southwest  Level FlightAware Approximate
Wed 09:03:00 AM 40.0453 -76.4261 237° Southwest  Level FlightAware Approximate
Wed 09:04:00 AM 40.0186 -76.4795 237° Southwest  Level FlightAware Approximate
Wed 09:05:00 AM 39.9919 -76.5330 237° Southwest  Level FlightAware Approximate
Wed 09:06:00 AM 39.9652 -76.5864 237° Southwest  Level FlightAware Approximate
Wed 09:07:00 AM 39.9397 -76.6407 241° Southwest  Level FlightAware Approximate
Wed 09:07:23 AM 39.9500 -76.6500 242° Southwest 194 223 8,100  Level Potomac TRACON
Wed 09:08:00 AM 39.9159 -76.6964 241° Southwest  Level FlightAware Approximate
Wed 09:08:23 AM 39.9333 -76.7167 252° West 197 227 8,100  Level Potomac TRACON
Wed 09:09:00 AM 39.8949 -76.7537 252° West  Level FlightAware Approximate
Wed 09:09:24 AM 39.9000 -76.7667 229° Southwest 196 226 8,100  Level Potomac TRACON
Wed 09:10:00 AM 39.8718 -76.8000 180° South  Level FlightAware Approximate
Wed 09:10:24 AM 39.8667 -76.8333 237° Southwest 197 227 8,100  Level Potomac TRACON
Wed 09:11:00 AM 39.8459 -76.8501 242° Southwest  Level FlightAware Approximate
Wed 09:11:24 AM 39.8333 -76.8833 229° Southwest 195 224 8,100  Level Potomac TRACON
Wed 09:12:00 AM 39.8226 -76.9060 242° Southwest  Level FlightAware Approximate
Wed 09:12:18 AM 39.8167 -76.9333 247° West 197 227 8,100  Level Potomac TRACON
Wed 09:13:18 AM 39.7833 -77.0000 237° Southwest 201 231 8,100  Level Potomac TRACON
Wed 09:14:18 AM 39.7667 -77.0667 252° West 200 230 8,100  Level Potomac TRACON
Wed 09:15:18 AM 39.7333 -77.1167 229° Southwest 199 229 8,100  Level Potomac TRACON
Wed 09:16:18 AM 39.7000 -77.1833 237° Southwest 198 228 8,100  Level Potomac TRACON
Wed 09:17:18 AM 39.6667 -77.2500 237° Southwest 198 228 8,100  Level Potomac TRACON
Wed 09:18:19 AM 39.6500 -77.3000 247° West 199 229 8,100  Level Potomac TRACON
Wed 09:19:19 AM 39.6167 -77.3667 237° Southwest 199 229 8,100  Level Potomac TRACON
Wed 09:20:19 AM 39.5833 -77.4333 237° Southwest 197 227 8,100  Level Potomac TRACON
Wed 09:21:13 AM 39.5500 -77.4833 229° Southwest 200 230 8,100  Level Potomac TRACON
Wed 09:22:07 AM 39.5333 -77.5500 252° West 200 230 8,100  Level Potomac TRACON
Wed 09:23:13 AM 39.5000 -77.6000 229° Southwest 196 226 8,100  Level Potomac TRACON
Wed 09:24:07 AM 39.4667 -77.6667 237° Southwest 195 224 8,100  Level Potomac TRACON
Wed 09:25:07 AM 39.4500 -77.7333 252° West 195 224 8,100  Level Potomac TRACON
Wed 09:26:08 AM 39.4167 -77.7833 229° Southwest 193 222 8,100  Level Potomac TRACON
Wed 09:27:02 AM 39.3833 -77.8333 229° Southwest 194 223 8,100  Level Potomac TRACON
Wed 09:27:56 AM 39.3500 -77.8833 229° Southwest 192 221 8,100  Level Potomac TRACON
Wed 09:28:56 AM 39.3167 -77.9167 218° Southwest 185 213 8,100  Level Potomac TRACON
Wed 09:29:56 AM 39.2667 -77.9500 207° Southwest 184 212 8,100  Level Potomac TRACON
Wed 09:30:56 AM 39.2167 -77.9833 207° Southwest 182 209 8,100  Level Potomac TRACON
Wed 09:31:56 AM 39.1833 -78.0167 218° Southwest 187 215 8,100  Level Potomac TRACON
Wed 09:32:50 AM 39.1500 -78.0500 218° Southwest 186 214 8,100  Level Potomac TRACON
Wed 09:33:44 AM 39.1000 -78.0833 207° Southwest 189 217 8,100  Level Potomac TRACON
Wed 09:34:07 AM 39.0872 -78.1028 230° Southwest 189 217 8,100  Level Washington Center
Wed 09:35:07 AM 39.0450 -78.1386 213° Southwest 189 217 8,100  Level Washington Center
Wed 09:36:05 AM 39.0025 -78.1744 213° Southwest 189 217 8,100  Level Washington Center
Wed 09:37:06 AM 38.9600 -78.2131 215° Southwest 189 217 8,100  Level Washington Center
Wed 09:38:07 AM 38.9175 -78.2517 215° Southwest 194 223 8,100  Level Washington Center
Wed 09:39:07 AM 38.8728 -78.2872 212° Southwest 194 223 8,100  Level Washington Center
Wed 09:40:05 AM 38.8303 -78.3231 213° Southwest 199 229 8,100  Level Washington Center
Wed 09:41:05 AM 38.7878 -78.3614 215° Southwest 199 229 8,100  Level Washington Center
Wed 09:42:05 AM 38.7431 -78.3997 214° Southwest 199 229 8,100  Level Washington Center
Wed 09:43:06 AM 38.7006 -78.4381 215° Southwest 199 229 8,100  Level Washington Center
Wed 09:44:06 AM 38.6581 -78.4708 211° Southwest 199 229 8,100  Level Washington Center
Wed 09:45:07 AM 38.6153 -78.5092 215° Southwest 199 229 8,100  Level Washington Center
Wed 09:46:05 AM 38.5728 -78.5472 215° Southwest 199 229 8,100  Level Washington Center
Wed 09:47:05 AM 38.5300 -78.5856 215° Southwest 199 229 8,100  Level Washington Center
Wed 09:48:06 AM 38.4875 -78.6181 211° Southwest 199 229 8,100  Level Washington Center
Wed 09:49:06 AM 38.4450 -78.6536 213° Southwest 199 229 8,100  Level Washington Center
Wed 09:50:07 AM 38.4003 -78.6914 214° Southwest 199 229 8,100  Level Washington Center
Wed 09:51:05 AM 38.3575 -78.7294 215° Southwest 199 229 8,100  Level Washington Center
Wed 09:53:09 AM 38.2667 -78.8000 211° Southwest 186 214 8,100  Level Potomac TRACON
Wed 09:54:03 AM 38.2333 -78.8333 218° Southwest 180 207 8,100  Level Potomac TRACON
Wed 09:54:57 AM 38.1833 -78.8667 208° Southwest 183 211 8,100  Level Potomac TRACON
Wed 09:55:57 AM 38.1500 -78.9000 218° Southwest 181 208 8,100  Level Potomac TRACON
Wed 09:56:57 AM 38.1000 -78.9333 208° Southwest 199 229 8,100  Level Potomac TRACON
Wed 09:57:51 AM 38.0667 -78.9667 218° Southwest 193 222 8,100  Level Potomac TRACON
Wed 09:58:51 AM 38.0167 -79.0000 208° Southwest 196 226 8,100  Level Potomac TRACON
Wed 09:59:51 AM 37.9667 -79.0333 208° Southwest 185 213 8,100  Level Potomac TRACON
Wed 10:00:45 AM 37.9333 -79.0667 218° Southwest 192 221 8,100  Level Potomac TRACON
Wed 10:01:45 AM 37.8833 -79.0833 195° South 179 206 8,100  Level Potomac TRACON
Wed 10:03:00 AM 37.8435 -79.1460 231° Southwest  Level FlightAware Approximate
Wed 10:10:00 AM 37.6016 -79.4769 225° Southwest  Level FlightAware Approximate
Wed 10:11:00 AM 37.5662 -79.5230 227° Southwest  Level FlightAware Approximate
Wed 10:12:00 AM 37.5314 -79.5697 227° Southwest  Level FlightAware Approximate
Wed 10:13:00 AM 37.4966 -79.6163 227° Southwest  Level FlightAware Approximate
Wed 10:14:00 AM 37.4618 -79.6629 227° Southwest  Level FlightAware Approximate
Wed 10:15:00 AM 37.4269 -79.7095 227° Southwest  Level FlightAware Approximate
Wed 10:16:00 AM 37.3920 -79.7560 227° Southwest  Level FlightAware Approximate
Wed 10:17:00 AM 37.3571 -79.8025 227° Southwest  Level FlightAware Approximate
Wed 10:17:30 AM 37.1108 -79.2250 227° Southwest 181 208 8,100  Level Washington Center
Wed 10:18:00 AM 37.3222 -79.8489 227° Southwest  Level FlightAware Approximate
Wed 10:18:30 AM 37.0606 -79.2331 187° South 181 208 8,100  Level Washington Center
Wed 10:19:00 AM 37.2873 -79.8953 227° Southwest  Level FlightAware Approximate
Wed 10:19:31 AM 37.0161 -79.2467 194° South 181 208 8,100  Level Washington Center
Wed 10:20:00 AM 37.2523 -79.9416 227° Southwest  Level FlightAware Approximate
Wed 10:20:30 AM 36.9697 -79.2703 202° Southwest 186 214 8,100  Level Washington Center
Wed 10:21:00 AM 37.2174 -79.9879 227° Southwest  Level FlightAware Approximate
Wed 10:21:30 AM 36.9228 -79.3019 208° Southwest 191 220 8,100  Level Washington Center
Wed 10:22:31 AM 36.8819 -79.3364 214° Southwest 191 220 8,100  Level Washington Center
Wed 10:23:31 AM 36.8347 -79.3781 215° Southwest 186 214 8,100  Level Washington Center
Wed 10:24:29 AM 36.7961 -79.4178 219° Southwest 186 214 8,100  Level Washington Center
Wed 10:25:29 AM 36.7572 -79.4572 219° Southwest 186 214 8,100  Level Washington Center
Wed 10:27:00 AM 36.6933 -79.5101 214° Southwest  Level FlightAware Approximate
Wed 10:34:00 AM 36.3982 -79.7534 236° Southwest  Level FlightAware Approximate
Wed 10:35:00 AM 36.3699 -79.8055 236° Southwest  Level FlightAware Approximate
Wed 10:36:00 AM 36.3416 -79.8575 236° Southwest  Level FlightAware Approximate
Wed 10:37:00 AM 36.3133 -79.9095 236° Southwest  Level FlightAware Approximate
Wed 10:38:00 AM 36.2850 -79.9615 236° Southwest  Level FlightAware Approximate
Wed 10:39:00 AM 36.2566 -80.0134 236° Southwest  Level FlightAware Approximate
Wed 10:40:00 AM 36.2283 -80.0653 236° Southwest  Level FlightAware Approximate
Wed 10:41:00 AM 36.1999 -80.1171 236° Southwest  Level FlightAware Approximate
Wed 10:42:00 AM 36.1715 -80.1689 236° Southwest  Level FlightAware Approximate
Wed 10:43:00 AM 36.1430 -80.2207 236° Southwest  Level FlightAware Approximate
Wed 10:44:00 AM 36.1146 -80.2724 236° Southwest  Level FlightAware Approximate
Wed 10:44:33 AM 36.1958 -80.3903 236° Southwest 182 209 8,100  Level Atlanta Center
Wed 10:45:00 AM 36.0861 -80.3241 236° Southwest  Level FlightAware Approximate
Wed 10:45:33 AM 36.1683 -80.4406 236° Southwest 174 200 8,100  Level Atlanta Center
Wed 10:46:00 AM 36.0575 -80.3758 236° Southwest  Level FlightAware Approximate
Wed 10:46:33 AM 36.1383 -80.4908 234° Southwest 174 200 8,100  Level Atlanta Center
Wed 10:47:00 AM 36.0290 -80.4274 236° Southwest  Level FlightAware Approximate
Wed 10:47:33 AM 36.1086 -80.5383 232° Southwest 179 206 8,100  Level Atlanta Center
Wed 10:48:00 AM 36.0005 -80.4790 236° Southwest  Level FlightAware Approximate
Wed 10:48:33 AM 36.0806 -80.5858 234° Southwest 184 212 8,100  Level Atlanta Center
Wed 10:49:00 AM 35.9719 -80.5306 236° Southwest  Level FlightAware Approximate
Wed 10:49:33 AM 36.0528 -80.6383 237° Southwest 184 212 8,100  Level Atlanta Center
Wed 10:50:33 AM 36.0250 -80.6831 232° Southwest 184 212 8,100  Level Atlanta Center
Wed 10:51:33 AM 35.9950 -80.7331 233° Southwest 184 212 8,100  Level Atlanta Center
Wed 10:52:33 AM 35.9650 -80.7806 232° Southwest 184 212 8,100  Level Atlanta Center
Wed 10:53:33 AM 35.9350 -80.8306 233° Southwest 184 212 8,100  Level Atlanta Center
Wed 10:54:33 AM 35.9069 -80.8803 235° Southwest 184 212 8,100  Level Atlanta Center
Wed 10:55:33 AM 35.8792 -80.9325 237° Southwest 184 212 8,100  Level Atlanta Center
Wed 10:56:33 AM 35.8492 -80.9850 235° Southwest 184 212 8,100  Level Atlanta Center
Wed 10:57:33 AM 35.8172 -81.0425 236° Southwest 184 212 8,100  Level Atlanta Center
Wed 10:58:33 AM 35.7892 -81.0922 235° Southwest 184 212 8,100  Level Atlanta Center
Wed 10:59:33 AM 35.7614 -81.1419 235° Southwest 184 212 8,100  Level Atlanta Center
Wed 11:00:30 AM 35.7353 -81.1889 236° Southwest 180 207 8,100  Level Atlanta Center
Wed 11:01:37 AM 35.7011 -81.2489 235° Southwest 178 205 8,100  Level Atlanta Center
Wed 11:02:33 AM 35.6750 -81.2931 234° Southwest 179 206 8,100  Level Atlanta Center
Wed 11:03:33 AM 35.6469 -81.3425 235° Southwest 179 206 8,100  Level Atlanta Center
Wed 11:04:33 AM 35.6167 -81.3922 233° Southwest 179 206 8,100  Level Atlanta Center
Wed 11:04:51 AM 35.6086 -81.4025 226° Southwest 177 204 8,100  Level Atlanta Center
Wed 11:05:40 AM 35.5844 -81.4469 236° Southwest 178 205 8,100  Level Atlanta Center
Wed 11:06:33 AM 35.5606 -81.4936 238° Southwest 179 206 8,100  Level Atlanta Center
Wed 11:07:33 AM 35.5322 -81.5428 235° Southwest 179 206 8,100  Level Atlanta Center
Wed 11:08:33 AM 35.5039 -81.5922 235° Southwest 179 206 8,100  Level Atlanta Center
Wed 11:09:00 AM 35.4900 -81.6156 234° Southwest 180 207 8,100  Level Atlanta Center
Wed 11:09:33 AM 35.4736 -81.6442 235° Southwest 179 206 8,100  Level Atlanta Center
Wed 11:09:48 AM 35.4656 -81.6572 233° Southwest 181 208 8,100  Level Atlanta Center
Wed 11:10:33 AM 35.4456 -81.6908 234° Southwest 179 206 8,100  Level Atlanta Center
Wed 11:10:49 AM 35.4353 -81.7064 231° Southwest 182 209 8,100 -200 Level Atlanta Center
Wed 11:11:33 AM 35.4150 -81.7403 234° Southwest 179 206 7,900 -492 Descending Atlanta Center
Wed 11:11:50 AM 35.4069 -81.7556 237° Southwest 182 209 7,600 -800 Descending Atlanta Center
Wed 11:12:33 AM 35.3847 -81.7894 231° Southwest 184 212 7,100 -350 Descending Atlanta Center
Wed 11:13:33 AM 35.3564 -81.8461 239° Southwest 196 226 7,000  Descending Atlanta Center
Wed 11:14:33 AM 35.3217 -81.8878 224° Southwest 196 226 7,100 50 Climbing Atlanta Center
Wed 11:15:33 AM 35.2678 -81.8994 190° South 184 212 7,100  Level Atlanta Center
Wed 11:16:33 AM 35.2178 -81.9108 191° South 196 226 7,100 -71 Level Atlanta Center
Wed 11:18:00 AM 35.2017 -81.9995 257° West  Level FlightAware Approximate
Wed 11:25:00 AM 35.0243 -82.3730 235° Southwest  Level FlightAware Approximate
Wed 11:26:00 AM 34.9947 -82.4239 235° Southwest  Level FlightAware Approximate
Wed 11:27:00 AM 34.9651 -82.4748 235° Southwest  Level FlightAware Approximate
Wed 11:28:00 AM 34.9354 -82.5257 235° Southwest  Level FlightAware Approximate
Wed 11:29:00 AM 34.9057 -82.5766 235° Southwest  Level FlightAware Approximate
Wed 11:30:00 AM 34.8760 -82.6274 235° Southwest  Level FlightAware Approximate
Wed 11:30:58 AM 34.7714 -82.6506 234° Southwest 194 223 6,000  Level Atlanta Center
Wed 11:31:00 AM 34.8463 -82.6781 235° Southwest  Level FlightAware Approximate
Wed 11:31:58 AM 34.7428 -82.6992 234° Southwest 188 216 6,000  Level Atlanta Center
Wed 11:32:00 AM 34.8165 -82.7289 234° Southwest  Level FlightAware Approximate
Wed 11:32:58 AM 34.7164 -82.7550 240° Southwest 188 216 6,000  Level Atlanta Center
Wed 11:33:00 AM 34.7868 -82.7796 234° Southwest  Level FlightAware Approximate
Wed 11:33:58 AM 34.6875 -82.8036 234° Southwest 188 216 6,000  Level Atlanta Center
Wed 11:34:00 AM 34.7570 -82.8302 234° Southwest  Level FlightAware Approximate
Wed 11:34:58 AM 34.6608 -82.8569 239° Southwest 188 216 6,000  Level Atlanta Center
Wed 11:35:00 AM 34.7271 -82.8808 234° Southwest  Level FlightAware Approximate
Wed 11:35:58 AM 34.6322 -82.9103 237° Southwest 188 216 6,000  Level Atlanta Center
Wed 11:36:00 AM 34.6973 -82.9314 234° Southwest  Level FlightAware Approximate
Wed 11:36:58 AM 34.6075 -82.9586 238° Southwest 188 216 6,000  Level Atlanta Center
Wed 11:37:58 AM 34.5789 -83.0094 236° Southwest 188 216 6,000  Level Atlanta Center
Wed 11:38:58 AM 34.5522 -83.0603 238° Southwest 188 216 6,000  Level Atlanta Center
Wed 11:39:58 AM 34.5256 -83.1133 239° Southwest 188 216 6,000  Level Atlanta Center
Wed 11:40:58 AM 34.4944 -83.1642 233° Southwest 193 222 6,000  Level Atlanta Center
Wed 11:41:58 AM 34.4614 -83.2075 227° Southwest 188 216 6,000  Level Atlanta Center
Wed 11:42:58 AM 34.4242 -83.2581 228° Southwest 188 216 6,000  Level Atlanta Center
Wed 11:43:58 AM 34.3911 -83.3114 233° Southwest 188 216 6,000  Level Atlanta Center
Wed 11:44:58 AM 34.3581 -83.3569 229° Southwest 188 216 6,000  Level Atlanta Center
Wed 11:45:57 AM 34.3289 -83.4050 234° Southwest 188 216 6,000  Level Atlanta Center
Wed 11:46:57 AM 34.2981 -83.4553 233° Southwest 188 216 6,000 -400 Level Atlanta Center
Wed 11:47:57 AM 34.2669 -83.5083 235° Southwest 190 219 5,200 -645 Descending Atlanta Center
Wed 11:48:58 AM 34.2358 -83.5564 232° Southwest 199 229 4,700 -450 Descending Atlanta Center
Wed 11:49:57 AM 34.2006 -83.6094 231° Southwest 204 235 4,300 -283 Descending Atlanta Center
Wed 11:52:09 AM 34.1333 -83.7167 233° Southwest 190 219 3,800 -249 Descending Atlanta TRACON
Wed 11:53:10 AM 34.0833 -83.7667 220° Southwest 192 221 3,500 -350 Descending Atlanta TRACON
Wed 11:54:09 AM 34.0500 -83.8167 231° Southwest 189 217 3,100 -500 Descending Atlanta TRACON
Wed 11:55:10 AM 34.0167 -83.8667 231° Southwest 179 206 2,500 -590 Descending Atlanta TRACON

Login

Don't have an account? Register now (free) for customized features, flight alerts, and more!